Terminal Aerodrome Forecast
Issued by NWS

Home | Current Version | Previous Version | Text Only | Print | Product List | Glossary On
Versions: 1 2 3 4 5 6 7 8 9 10 11 12 13 14 15 16
000
FTUS43 KDTX 250520
TAFDET
TAF
KDET 250520Z 2506/2606 06003KT P6SM SKC
     FM251100 11004KT P6SM SCT030
     FM251600 11007KT P6SM SCT250
     FM260200 14007KT P6SM SCT080 BKN150=

USA.gov is the U.S. government's official web portal to all federal, state and local government web resources and services.